Terminal Aerodrome Forecast
Issued by NWS

Home | Current Version | Previous Version | Graphics & Text | Print | Product List | Glossary On
Versions: 1 2 3 4 5 6 7 8 9 10 11 12 13 14 15 16
411
FTUS42 KMHX 181153
TAFPGV
TAF
KPGV 181153Z 1812/1912 01009KT 5SM BR OVC003
     FM181400 01010KT P6SM OVC008
     FM181600 01011G21KT P6SM BKN020
     FM181900 02012G22KT P6SM SCT020
     FM190700 33009KT P6SM OVC007
      AMD LTD TO CLD VIS AND WIND=

USA.gov is the U.S. government's official web portal to all federal, state and local government web resources and services.